createdAt,value
2022-08-25T00:08:43.563Z,15.52
2022-08-25T00:18:51.258Z,14.63
2022-08-25T00:28:57.455Z,15.45
2022-08-25T00:39:05.546Z,16.83
2022-08-25T00:49:20.864Z,14.68
2022-08-25T01:09:34.290Z,14.15
2022-08-25T01:19:37.716Z,14.77
2022-08-25T01:29:42.575Z,13.57
2022-08-25T01:39:46.407Z,13.90
2022-08-25T01:49:50.928Z,13.10
2022-08-25T01:59:54.380Z,14.48
2022-08-25T02:10:02.208Z,15.63
2022-08-25T02:20:10.294Z,14.02
2022-08-25T02:30:16.520Z,11.57
2022-08-25T02:40:21.686Z,11.40
2022-08-25T02:50:26.535Z,11.10
2022-08-25T03:00:30.133Z,12.32
2022-08-25T03:10:36.239Z,12.38
2022-08-25T03:20:40.903Z,10.43
2022-08-25T03:30:45.983Z,12.02
2022-08-25T03:40:53.439Z,11.23
2022-08-25T03:50:58.567Z,11.18
2022-08-25T04:01:01.746Z,9.95
2022-08-25T04:11:13.328Z,9.73
2022-08-25T04:21:18.165Z,11.65
2022-08-25T04:31:23.364Z,10.10
2022-08-25T04:41:29.450Z,10.37
2022-08-25T05:01:41.263Z,10.55
2022-08-25T05:11:45.886Z,11.70
2022-08-25T05:21:52.181Z,11.20
2022-08-25T05:31:59.385Z,13.68
2022-08-25T05:42:03.828Z,14.43
2022-08-25T05:52:09.309Z,12.80
2022-08-25T06:02:31.055Z,8.52
2022-08-25T06:12:36.728Z,10.77
2022-08-25T06:22:44.873Z,12.73
2022-08-25T06:32:52.891Z,8.60
2022-08-25T06:42:58.621Z,6.75
2022-08-25T06:53:03.732Z,9.07
2022-08-25T07:03:07.627Z,8.10
2022-08-25T07:23:16.840Z,13.60
2022-08-25T07:33:30.282Z,14.13
2022-08-25T07:43:35.038Z,19.40
2022-08-25T07:53:43.180Z,13.18
2022-08-25T08:03:50.938Z,10.90
2022-08-25T08:14:03.933Z,8.63
2022-08-25T08:24:24.771Z,7.60
2022-08-25T08:34:34.318Z,6.43
2022-08-25T08:44:47.396Z,7.22
2022-08-25T08:55:01.691Z,6.30
2022-08-25T09:05:13.233Z,7.05
2022-08-25T09:15:47.832Z,4.93
2022-08-25T09:25:59.212Z,6.35
2022-08-25T09:36:06.425Z,10.60
2022-08-25T09:46:15.648Z,8.55
2022-08-25T09:56:24.171Z,6.53
2022-08-25T10:06:35.463Z,6.63
2022-08-25T10:16:40.370Z,5.47
2022-08-25T10:26:59.127Z,5.85
2022-08-25T10:37:13.555Z,5.35
2022-08-25T10:47:55.525Z,5.93
2022-08-25T10:58:14.672Z,4.50
2022-08-25T11:08:28.053Z,5.57
2022-08-25T11:18:34.140Z,5.78
2022-08-25T11:28:49.904Z,5.55
2022-08-25T11:39:06.975Z,6.40
2022-08-25T11:49:37.961Z,5.80
2022-08-25T12:00:10.286Z,5.95
2022-08-25T12:10:19.424Z,6.53
2022-08-25T12:21:03.900Z,6.90
2022-08-25T12:31:20.758Z,6.72
2022-08-25T12:41:33.711Z,7.20
2022-08-25T12:51:54.649Z,6.90
2022-08-25T13:02:36.699Z,7.05
2022-08-25T13:12:47.233Z,6.78
2022-08-25T13:22:57.718Z,6.82
2022-08-25T13:33:15.865Z,5.70
2022-08-25T13:43:22.518Z,7.13
2022-08-25T13:53:32.095Z,6.60
2022-08-25T14:03:42.121Z,6.82
2022-08-25T14:14:00.989Z,6.55
2022-08-25T14:24:08.862Z,5.78
2022-08-25T14:34:17.954Z,6.70
2022-08-25T14:44:24.944Z,6.80
2022-08-25T14:54:33.674Z,7.65
2022-08-25T15:04:42.580Z,6.72
2022-08-25T15:14:52.839Z,6.85
2022-08-25T15:24:58.342Z,7.40
2022-08-25T15:35:07.237Z,7.95
2022-08-25T15:45:12.254Z,7.82
2022-08-25T15:55:17.621Z,8.50
2022-08-25T16:05:26.235Z,7.70
2022-08-25T16:15:30.083Z,7.32
2022-08-25T16:25:38.933Z,8.00
2022-08-25T16:35:42.027Z,7.57
2022-08-25T16:45:46.775Z,8.25
2022-08-25T16:55:50.233Z,10.02
2022-08-25T17:06:00.043Z,8.90
2022-08-25T17:16:03.570Z,11.20
2022-08-25T17:26:12.975Z,11.27
2022-08-25T17:36:17.835Z,12.75
2022-08-25T17:46:23.091Z,10.77
2022-08-25T17:56:28.130Z,12.90
2022-08-25T18:06:33.295Z,10.98
2022-08-25T18:16:36.279Z,9.48
2022-08-25T18:26:40.803Z,11.20
2022-08-25T18:36:43.971Z,11.50
2022-08-25T18:46:49.859Z,9.70
2022-08-25T18:56:53.464Z,12.65
2022-08-25T19:06:58.825Z,11.55
2022-08-25T19:17:01.941Z,10.85
2022-08-25T19:27:06.600Z,10.35
2022-08-25T19:37:17.948Z,13.10
2022-08-25T19:47:22.446Z,12.93
2022-08-25T19:57:28.272Z,12.20
2022-08-25T20:07:48.063Z,12.25
2022-08-25T20:17:51.158Z,13.25
2022-08-25T20:38:06.415Z,14.02
2022-08-25T20:48:21.425Z,13.07
2022-08-25T20:58:31.497Z,13.85
2022-08-25T21:09:18.472Z,15.00
2022-08-25T21:19:38.700Z,14.27
2022-08-25T21:30:09.543Z,15.07
2022-08-25T22:13:23.945Z,14.82
2022-08-25T22:23:29.375Z,15.85
2022-08-25T22:33:35.237Z,13.75
2022-08-25T22:43:41.500Z,14.85
2022-08-25T22:53:48.690Z,14.68
2022-08-25T23:03:53.362Z,14.20
2022-08-25T23:14:01.510Z,13.88
2022-08-25T23:24:07.202Z,15.07
2022-08-25T23:34:14.205Z,15.88
2022-08-25T23:44:19.552Z,14.52
2022-08-25T23:54:30.893Z,15.98
